createdAt,value
2023-04-22T00:01:31.224Z,100.00
2023-04-22T00:05:29.236Z,100.00
2023-04-22T00:09:27.207Z,100.00
2023-04-22T00:13:25.151Z,100.00
2023-04-22T00:17:23.172Z,100.00
2023-04-22T00:21:21.120Z,100.00
2023-04-22T00:25:19.218Z,100.00
2023-04-22T00:29:18.253Z,100.00
2023-04-22T00:33:16.205Z,100.00
2023-04-22T00:37:14.137Z,100.00
2023-04-22T00:41:12.174Z,100.00
2023-04-22T00:45:10.082Z,100.00
2023-04-22T00:49:08.144Z,100.00
2023-04-22T00:53:07.234Z,100.00
2023-04-22T00:57:05.201Z,100.00
2023-04-22T01:01:03.246Z,100.00
2023-04-22T01:05:02.182Z,100.00
2023-04-22T01:09:01.097Z,100.00
2023-04-22T01:12:59.101Z,100.00
2023-04-22T01:16:58.196Z,100.00
2023-04-22T01:20:56.079Z,100.00
2023-04-22T01:24:54.067Z,100.00
2023-04-22T01:28:52.106Z,100.00
2023-04-22T01:32:50.152Z,100.00
2023-04-22T01:36:50.056Z,100.00
2023-04-22T01:40:49.057Z,100.00
2023-04-22T01:44:47.024Z,100.00
2023-04-22T01:48:45.057Z,100.00
2023-04-22T01:52:43.167Z,100.00
2023-04-22T01:56:41.032Z,100.00
2023-04-22T02:00:39.113Z,100.00
2023-04-22T02:04:37.182Z,100.00
2023-04-22T02:08:35.020Z,100.00
2023-04-22T02:12:32.942Z,100.00
2023-04-22T02:16:31.228Z,100.00
2023-04-22T02:20:29.024Z,100.00
2023-04-22T02:24:30.127Z,100.00
2023-04-22T02:28:27.976Z,100.00
2023-04-22T02:32:26.020Z,100.00
2023-04-22T02:36:23.996Z,100.00
2023-04-22T02:40:21.994Z,100.00
2023-04-22T02:44:19.946Z,100.00
2023-04-22T02:48:17.940Z,100.00
2023-04-22T02:52:16.973Z,100.00
2023-04-22T02:56:16.060Z,100.00
2023-04-22T03:00:14.022Z,100.00
2023-04-22T03:04:13.141Z,100.00
2023-04-22T03:08:11.006Z,100.00
2023-04-22T03:12:08.978Z,100.00
2023-04-22T03:16:06.947Z,100.00
2023-04-22T03:20:04.939Z,100.00
2023-04-22T03:24:02.940Z,100.00
2023-04-22T03:28:01.918Z,100.00
2023-04-22T03:31:59.939Z,100.00
2023-04-22T03:35:58.905Z,100.00
2023-04-22T03:39:56.887Z,100.00
2023-04-22T03:43:54.965Z,100.00
2023-04-22T03:47:53.036Z,100.00
2023-04-22T03:51:58.002Z,100.00
2023-04-22T03:55:55.963Z,100.00
2023-04-22T03:59:55.927Z,100.00
2023-04-22T04:03:54.013Z,100.00
2023-04-22T04:07:57.991Z,100.00
2023-04-22T04:11:55.829Z,100.00
2023-04-22T04:15:57.044Z,100.00
2023-04-22T04:19:54.895Z,100.00
2023-04-22T04:23:52.826Z,100.00
2023-04-22T04:27:52.816Z,100.00
2023-04-22T04:31:51.021Z,100.00
2023-04-22T04:35:49.788Z,100.00
2023-04-22T04:39:50.835Z,100.00
2023-04-22T04:43:52.797Z,100.00
2023-04-22T04:47:56.981Z,100.00
2023-04-22T04:51:59.014Z,100.00
2023-04-22T04:55:57.792Z,100.00
2023-04-22T04:59:55.778Z,100.00
2023-04-22T05:03:57.055Z,100.00
2023-04-22T05:07:55.749Z,100.00
2023-04-22T05:11:54.939Z,100.00
2023-04-22T05:15:53.762Z,100.00
2023-04-22T05:19:51.937Z,100.00
2023-04-22T05:23:50.889Z,99.99
2023-04-22T05:27:48.752Z,98.75
2023-04-22T05:31:47.928Z,92.26
2023-04-22T05:35:45.795Z,81.74
2023-04-22T05:39:43.783Z,79.03
2023-04-22T05:43:41.809Z,76.43
2023-04-22T05:47:42.967Z,74.03
2023-04-22T05:51:41.798Z,73.82
2023-04-22T05:55:40.798Z,66.69
2023-04-22T05:59:39.146Z,65.68
2023-04-22T06:03:36.949Z,64.63
2023-04-22T06:07:34.728Z,61.35
2023-04-22T06:11:32.745Z,60.43
2023-04-22T06:15:30.802Z,61.42
2023-04-22T06:19:28.703Z,61.27
2023-04-22T06:23:26.687Z,60.26
2023-04-22T06:27:24.717Z,59.51
2023-04-22T06:31:22.928Z,59.83
2023-04-22T06:35:20.781Z,60.97
2023-04-22T06:39:19.747Z,59.38
2023-04-22T06:43:17.692Z,59.44
2023-04-22T06:47:33.788Z,60.35
2023-04-22T06:51:39.735Z,59.11
2023-04-22T06:55:37.654Z,59.21
2023-04-22T06:59:35.694Z,58.73
2023-04-22T07:03:35.872Z,56.34
2023-04-22T07:07:35.645Z,53.65
2023-04-22T07:11:34.740Z,52.46
2023-04-22T07:15:37.745Z,49.48
2023-04-22T07:19:35.734Z,49.89
2023-04-22T07:23:33.708Z,49.33
2023-04-22T07:27:31.628Z,49.26
2023-04-22T07:31:29.676Z,50.54
2023-04-22T07:35:27.636Z,48.77
2023-04-22T07:39:25.625Z,48.34
2023-04-22T07:43:23.659Z,49.46
2023-04-22T07:47:21.705Z,50.00
2023-04-22T07:51:19.611Z,47.92
2023-04-22T07:55:17.633Z,45.93
2023-04-22T07:59:15.717Z,46.64
2023-04-22T08:03:16.944Z,47.03
2023-04-22T08:07:31.736Z,46.01
2023-04-22T08:11:30.587Z,46.08
2023-04-22T08:15:28.574Z,44.17
2023-04-22T08:19:26.600Z,45.23
2023-04-22T08:23:24.597Z,45.59
2023-04-22T08:27:22.520Z,45.92
2023-04-22T08:31:20.584Z,46.29
2023-04-22T08:35:18.531Z,47.40
2023-04-22T08:39:17.572Z,47.12
2023-04-22T08:43:15.530Z,45.77
2023-04-22T08:47:13.726Z,46.10
2023-04-22T08:51:12.500Z,45.31
2023-04-22T08:55:10.672Z,44.98
2023-04-22T08:59:10.595Z,42.48
2023-04-22T09:03:08.687Z,41.06
2023-04-22T09:07:06.551Z,41.57
2023-04-22T09:11:04.514Z,41.72
2023-04-22T09:15:02.501Z,42.30
2023-04-22T09:19:00.513Z,43.12
2023-04-22T09:23:04.538Z,42.75
2023-04-22T09:27:04.906Z,42.57
2023-04-22T09:31:02.513Z,42.83
2023-04-22T09:35:09.504Z,42.53
2023-04-22T09:39:18.535Z,41.76
2023-04-22T09:43:19.517Z,41.49
2023-04-22T09:47:18.474Z,39.94
2023-04-22T09:51:16.564Z,39.69
2023-04-22T09:55:14.466Z,41.12
2023-04-22T09:59:12.479Z,41.01
2023-04-22T10:03:11.212Z,41.44
2023-04-22T10:07:09.518Z,41.61
2023-04-22T10:11:08.408Z,41.66
2023-04-22T10:15:06.488Z,39.56
2023-04-22T10:19:05.417Z,38.81
2023-04-22T10:23:03.571Z,38.36
2023-04-22T10:27:09.463Z,37.33
2023-04-22T10:31:08.471Z,36.37
2023-04-22T10:35:21.569Z,35.43
2023-04-22T10:39:19.463Z,36.39
2023-04-22T10:43:17.395Z,35.60
2023-04-22T10:47:15.520Z,36.70
2023-04-22T10:51:13.410Z,36.07
2023-04-22T10:55:12.617Z,36.26
2023-04-22T10:59:13.407Z,36.46
2023-04-22T11:03:20.511Z,36.75
2023-04-22T11:07:44.420Z,36.22
2023-04-22T11:11:42.630Z,34.85
2023-04-22T11:15:40.389Z,34.83
2023-04-22T11:19:38.657Z,35.58
2023-04-22T11:23:41.354Z,35.94
2023-04-22T11:27:40.466Z,36.36
2023-04-22T11:31:38.469Z,37.13
2023-04-22T11:35:43.366Z,36.96
2023-04-22T11:40:13.075Z,37.01
2023-04-22T11:44:08.432Z,36.44
2023-04-22T11:48:07.349Z,36.74
2023-04-22T11:52:09.346Z,36.38
2023-04-22T11:56:07.377Z,36.00
2023-04-22T12:00:14.457Z,36.42
2023-04-22T12:04:15.426Z,36.22
2023-04-22T12:08:15.363Z,35.29
2023-04-22T12:12:13.565Z,34.49
2023-04-22T12:16:16.308Z,34.91
2023-04-22T12:20:15.318Z,34.57
2023-04-22T12:24:15.290Z,35.64
2023-04-22T12:28:13.323Z,35.73
2023-04-22T12:32:11.289Z,35.68
2023-04-22T12:36:10.312Z,35.51
2023-04-22T12:40:08.384Z,34.81
2023-04-22T12:44:06.368Z,35.37
2023-04-22T12:48:08.952Z,35.76
2023-04-22T12:52:07.348Z,36.56
2023-04-22T12:56:08.391Z,37.43
2023-04-22T13:00:06.379Z,36.09
2023-04-22T13:04:04.622Z,35.53
2023-04-22T13:08:06.989Z,35.52
2023-04-22T13:12:06.351Z,35.55
2023-04-22T13:16:05.300Z,34.58
2023-04-22T13:20:03.326Z,34.24
2023-04-22T13:24:01.274Z,34.68
2023-04-22T13:27:59.279Z,35.37
2023-04-22T13:31:58.409Z,35.18
2023-04-22T13:35:56.239Z,36.62
2023-04-22T13:39:54.353Z,36.55
2023-04-22T13:43:52.336Z,36.86
2023-04-22T13:47:51.272Z,36.91
2023-04-22T13:51:49.252Z,35.98
2023-04-22T13:55:50.237Z,34.16
2023-04-22T13:59:50.215Z,33.69
2023-04-22T14:03:48.338Z,34.56
2023-04-22T14:07:46.346Z,34.35
2023-04-22T14:11:46.270Z,34.30
2023-04-22T14:15:44.251Z,34.30
2023-04-22T14:19:44.167Z,34.18
2023-04-22T14:23:42.210Z,33.82
2023-04-22T14:27:41.186Z,33.32
2023-04-22T14:31:39.233Z,33.24
2023-04-22T14:35:37.182Z,33.60
2023-04-22T14:39:35.169Z,35.10
2023-04-22T14:43:34.402Z,35.59
2023-04-22T14:47:32.298Z,36.30
2023-04-22T14:51:30.250Z,35.97
2023-04-22T14:55:28.186Z,35.90
2023-04-22T14:59:26.212Z,36.41
2023-04-22T15:03:24.422Z,35.93
2023-04-22T15:07:22.170Z,35.64
2023-04-22T15:11:20.204Z,34.65
2023-04-22T15:15:20.161Z,35.28
2023-04-22T15:19:18.253Z,34.14
2023-04-22T15:23:16.129Z,33.70
2023-04-22T15:27:14.242Z,33.27
2023-04-22T15:31:20.152Z,31.77
2023-04-22T15:35:18.268Z,31.39
2023-04-22T15:39:17.221Z,30.85
2023-04-22T15:43:15.215Z,31.28
2023-04-22T15:47:14.139Z,31.78
2023-04-22T15:51:12.282Z,31.85
2023-04-22T15:55:10.142Z,31.62
2023-04-22T15:59:08.176Z,31.82
2023-04-22T16:03:07.342Z,32.07
2023-04-22T16:07:06.110Z,32.50
2023-04-22T16:11:04.165Z,33.26
2023-04-22T16:15:02.201Z,33.28
2023-04-22T16:19:00.235Z,33.67
2023-04-22T16:22:58.099Z,34.15
2023-04-22T16:26:56.208Z,34.46
2023-04-22T16:30:55.142Z,35.36
2023-04-22T16:34:53.076Z,36.06
2023-04-22T16:38:51.166Z,36.43
2023-04-22T16:42:49.118Z,36.36
2023-04-22T16:46:47.109Z,36.75
2023-04-22T16:50:45.027Z,37.23
2023-04-22T16:54:43.067Z,37.73
2023-04-22T16:58:41.140Z,38.03
2023-04-22T17:02:41.142Z,38.50
2023-04-22T17:06:40.107Z,38.92
2023-04-22T17:10:38.148Z,39.67
2023-04-22T17:14:36.029Z,40.52
2023-04-22T17:18:34.094Z,40.62
2023-04-22T17:22:32.084Z,41.96
2023-04-22T17:26:30.070Z,41.79
2023-04-22T17:30:28.150Z,42.59
2023-04-22T17:34:26.139Z,42.75
2023-04-22T17:38:24.096Z,42.98
2023-04-22T17:42:23.771Z,43.47
2023-04-22T17:46:25.096Z,44.13
2023-04-22T17:50:23.059Z,44.46
2023-04-22T17:54:21.141Z,44.94
2023-04-22T17:58:20.267Z,45.52
2023-04-22T18:02:12.327Z,46.13
2023-04-22T18:06:09.970Z,47.08
2023-04-22T18:10:08.033Z,47.61
2023-04-22T18:14:06.014Z,48.27
2023-04-22T18:18:05.069Z,48.71
2023-04-22T18:22:02.964Z,48.85
2023-04-22T18:26:00.957Z,49.65
2023-04-22T18:29:58.945Z,50.26
2023-04-22T18:33:56.928Z,50.53
2023-04-22T18:37:54.992Z,51.26
2023-04-22T18:41:52.920Z,51.78
2023-04-22T18:45:50.964Z,53.24
2023-04-22T18:49:48.907Z,54.98
2023-04-22T18:53:46.942Z,54.78
2023-04-22T18:57:44.964Z,55.79
2023-04-22T19:01:45.284Z,56.34
2023-04-22T19:05:43.011Z,56.79
2023-04-22T19:09:41.964Z,57.08
2023-04-22T19:13:39.899Z,57.17
2023-04-22T19:17:38.071Z,58.03
2023-04-22T19:21:37.328Z,59.00
2023-04-22T19:25:36.061Z,59.74
2023-04-22T19:29:33.856Z,60.55
2023-04-22T19:33:31.887Z,61.07
2023-04-22T19:37:32.911Z,61.74
2023-04-22T19:41:30.836Z,62.50
2023-04-22T19:45:28.945Z,63.23
2023-04-22T19:49:26.864Z,63.95
2023-04-22T19:53:24.882Z,64.11
2023-04-22T19:57:24.900Z,64.45
2023-04-22T20:01:22.864Z,65.09
2023-04-22T20:05:20.993Z,66.02
2023-04-22T20:09:18.973Z,67.03
2023-04-22T20:13:16.965Z,67.39
2023-04-22T20:17:15.797Z,68.12
2023-04-22T20:21:14.864Z,71.33
2023-04-22T20:25:17.854Z,74.46
2023-04-22T20:29:16.843Z,75.55
2023-04-22T20:33:19.674Z,75.28
2023-04-22T20:37:18.782Z,75.59
2023-04-22T20:41:21.796Z,76.23
2023-04-22T20:45:21.814Z,75.77
2023-04-22T20:49:19.770Z,75.63
2023-04-22T20:53:17.883Z,75.51
2023-04-22T20:57:15.919Z,76.47
2023-04-22T21:01:13.952Z,77.38
2023-04-22T21:05:11.802Z,78.77
2023-04-22T21:09:09.755Z,79.92
2023-04-22T21:13:08.781Z,80.85
2023-04-22T21:17:18.880Z,81.07
2023-04-22T21:21:17.752Z,81.78
2023-04-22T21:25:15.831Z,85.04
2023-04-22T21:29:13.732Z,86.56
2023-04-22T21:33:11.854Z,85.52
2023-04-22T21:37:09.723Z,87.27
2023-04-22T21:41:07.736Z,88.94
2023-04-22T21:45:05.692Z,91.03
2023-04-22T21:49:03.729Z,90.11
2023-04-22T21:53:01.719Z,88.78
2023-04-22T21:56:59.705Z,89.29
2023-04-22T22:00:57.815Z,89.78
2023-04-22T22:04:55.735Z,90.75
2023-04-22T22:08:55.690Z,93.10
2023-04-22T22:12:53.793Z,94.57
2023-04-22T22:16:51.855Z,96.26
2023-04-22T22:20:50.724Z,97.54
2023-04-22T22:24:49.795Z,97.37
2023-04-22T22:28:47.775Z,96.54
2023-04-22T22:32:46.897Z,96.11
2023-04-22T22:36:44.681Z,97.17
2023-04-22T22:40:42.624Z,98.51
2023-04-22T22:44:40.897Z,99.93
2023-04-22T22:48:38.674Z,100.00
2023-04-22T22:52:36.641Z,100.00
2023-04-22T22:56:34.729Z,100.00
2023-04-22T23:00:32.708Z,100.00
2023-04-22T23:04:30.749Z,100.00
2023-04-22T23:08:28.692Z,100.00
2023-04-22T23:12:26.617Z,100.00
2023-04-22T23:16:24.772Z,100.00
2023-04-22T23:20:23.604Z,100.00
2023-04-22T23:24:26.856Z,100.00
2023-04-22T23:28:24.610Z,100.00
2023-04-22T23:32:22.786Z,100.00
2023-04-22T23:36:23.593Z,100.00
2023-04-22T23:40:22.672Z,100.00
2023-04-22T23:44:20.526Z,100.00
2023-04-22T23:48:18.613Z,100.00
2023-04-22T23:52:17.608Z,100.00
2023-04-22T23:56:15.575Z,100.00
